オウル の空港の天気 - METARとTAF

オウル空港 ( EFOU / OUL ) - フィンランド Oulunsalo
飛行場実況気象(Metar)
観測時間11/27 11:50 EET (11/27 09:50 UTC)
風向・風速南 4m/s
視程10km以上
天気現象
全天を覆う雲 雲底高度 150m
気温-2℃
湿度93%
気圧1031hPa
METAREFOU 270950Z AUTO 17007KT 140V220 9999 OVC005 M02/M03 Q1031
過去の天気等 Google飛行場航空写真 Wunderground天気予報

過去48時間のMETAR

飛行場予報(TAF)
発表時間: 11/27 10:28 EET (11/27 08:28 UTC)
予報対象時間: 27日11時 EET ~ 28日11時 EET
風向・風速南南東 5m/s
視程10km以上
全天を覆う雲 雲底高度 150m
27日11時 EET から 確率 40% で
全天を覆う雲 雲底高度 120m
27日14時 EET ~ 28日2時 EET に一時的に
全天の4割程度の雲 雲底高度 150m
全天を覆う雲 雲底高度 370m
27日14時 EET から 確率 30% で
全天の4割程度の雲 雲底高度 240m
全天の8割程度の雲 雲底高度 910m
28日2時 EET ~ 28日11時 EET に一時的に
全天の4割程度の雲 雲底高度 240m
全天の8割程度の雲 雲底高度 910m
TAF EFOU 270828Z 2709/2809 15009KT 9999 OVC005
PROB40 2709/2712 OVC004
TEMPO 2712/2724 SCT005 OVC012
PROB30 2712/2724 SCT008 BKN030
TEMPO 2800/2809 SCT008 BKN030